sensor_id;sensor_type;location;lat;lon;timestamp;temperature;humidity
11126;DHT22;5617;54.046;10.676;2022-11-12T00:01:02;12.40;99.90
11126;DHT22;5617;54.046;10.676;2022-11-12T00:03:10;12.40;99.90
11126;DHT22;5617;54.046;10.676;2022-11-12T00:05:19;12.40;99.90
11126;DHT22;5617;54.046;10.676;2022-11-12T00:07:30;12.40;99.90
11126;DHT22;5617;54.046;10.676;2022-11-12T00:09:38;12.40;99.90
11126;DHT22;5617;54.046;10.676;2022-11-12T00:11:47;12.40;99.90
11126;DHT22;5617;54.046;10.676;2022-11-12T00:13:55;12.40;99.90
11126;DHT22;5617;54.046;10.676;2022-11-12T00:16:05;12.40;99.90
11126;DHT22;5617;54.046;10.676;2022-11-12T00:18:14;12.40;99.90
11126;DHT22;5617;54.046;10.676;2022-11-12T00:20:22;12.40;99.90
11126;DHT22;5617;54.046;10.676;2022-11-12T00:22:32;12.40;99.90
11126;DHT22;5617;54.046;10.676;2022-11-12T00:24:39;12.40;99.90
11126;DHT22;5617;54.046;10.676;2022-11-12T00:26:47;12.50;99.90
11126;DHT22;5617;54.046;10.676;2022-11-12T00:28:55;12.40;99.90
11126;DHT22;5617;54.046;10.676;2022-11-12T00:31:08;12.40;99.90
11126;DHT22;5617;54.046;10.676;2022-11-12T00:33:16;12.40;99.90
11126;DHT22;5617;54.046;10.676;2022-11-12T00:35:23;12.40;99.90
11126;DHT22;5617;54.046;10.676;2022-11-12T00:37:32;12.40;99.90
11126;DHT22;5617;54.046;10.676;2022-11-12T00:39:40;12.40;99.90
11126;DHT22;5617;54.046;10.676;2022-11-12T00:41:48;12.40;99.90
11126;DHT22;5617;54.046;10.676;2022-11-12T00:43:56;12.40;99.90
11126;DHT22;5617;54.046;10.676;2022-11-12T00:46:03;12.40;99.90
11126;DHT22;5617;54.046;10.676;2022-11-12T00:48:11;12.40;99.90
11126;DHT22;5617;54.046;10.676;2022-11-12T00:50:20;12.30;99.90
11126;DHT22;5617;54.046;10.676;2022-11-12T00:52:29;12.30;99.90
11126;DHT22;5617;54.046;10.676;2022-11-12T00:54:38;12.30;99.90
11126;DHT22;5617;54.046;10.676;2022-11-12T00:56:45;12.30;99.90
11126;DHT22;5617;54.046;10.676;2022-11-12T00:58:53;12.30;99.90
11126;DHT22;5617;54.046;10.676;2022-11-12T01:01:06;12.30;99.90
11126;DHT22;5617;54.046;10.676;2022-11-12T01:03:17;12.30;99.90
11126;DHT22;5617;54.046;10.676;2022-11-12T01:05:25;12.30;99.90
11126;DHT22;5617;54.046;10.676;2022-11-12T01:07:33;12.30;99.90
11126;DHT22;5617;54.046;10.676;2022-11-12T01:09:42;12.20;99.90
11126;DHT22;5617;54.046;10.676;2022-11-12T01:11:50;12.20;99.90
11126;DHT22;5617;54.046;10.676;2022-11-12T01:13:59;12.20;99.90
11126;DHT22;5617;54.046;10.676;2022-11-12T01:16:09;12.20;99.90
11126;DHT22;5617;54.046;10.676;2022-11-12T01:18:17;12.20;99.90
11126;DHT22;5617;54.046;10.676;2022-11-12T01:20:25;12.10;99.90
11126;DHT22;5617;54.046;10.676;2022-11-12T01:22:32;12.10;99.90
11126;DHT22;5617;54.046;10.676;2022-11-12T01:24:43;12.10;99.90
11126;DHT22;5617;54.046;10.676;2022-11-12T01:26:51;12.00;99.90
11126;DHT22;5617;54.046;10.676;2022-11-12T01:28:59;12.00;99.90
11126;DHT22;5617;54.046;10.676;2022-11-12T01:31:23;11.90;99.90
11126;DHT22;5617;54.046;10.676;2022-11-12T01:33:31;11.90;99.90
11126;DHT22;5617;54.046;10.676;2022-11-12T01:35:39;11.90;99.90
11126;DHT22;5617;54.046;10.676;2022-11-12T01:37:55;11.80;99.90
11126;DHT22;5617;54.046;10.676;2022-11-12T01:40:05;11.80;99.90
11126;DHT22;5617;54.046;10.676;2022-11-12T01:42:13;11.80;99.90
11126;DHT22;5617;54.046;10.676;2022-11-12T01:44:22;11.70;99.90
11126;DHT22;5617;54.046;10.676;2022-11-12T01:46:30;11.60;99.90
11126;DHT22;5617;54.046;10.676;2022-11-12T01:48:40;11.60;99.90
11126;DHT22;5617;54.046;10.676;2022-11-12T01:50:51;11.60;99.90
11126;DHT22;5617;54.046;10.676;2022-11-12T01:53:02;11.60;99.90
11126;DHT22;5617;54.046;10.676;2022-11-12T01:55:15;11.50;99.90
11126;DHT22;5617;54.046;10.676;2022-11-12T01:57:26;11.50;99.90
11126;DHT22;5617;54.046;10.676;2022-11-12T01:59:39;11.50;99.90
11126;DHT22;5617;54.046;10.676;2022-11-12T02:01:48;11.40;99.90
11126;DHT22;5617;54.046;10.676;2022-11-12T02:03:56;11.40;99.90
11126;DHT22;5617;54.046;10.676;2022-11-12T02:06:07;11.40;99.90
11126;DHT22;5617;54.046;10.676;2022-11-12T02:08:16;11.40;99.90
11126;DHT22;5617;54.046;10.676;2022-11-12T02:10:26;11.40;99.90
11126;DHT22;5617;54.046;10.676;2022-11-12T02:12:34;11.40;99.90
11126;DHT22;5617;54.046;10.676;2022-11-12T02:15:02;11.40;99.90
11126;DHT22;5617;54.046;10.676;2022-11-12T02:17:10;11.40;99.90
11126;DHT22;5617;54.046;10.676;2022-11-12T02:19:17;11.40;99.90
11126;DHT22;5617;54.046;10.676;2022-11-12T02:21:27;11.40;99.90
11126;DHT22;5617;54.046;10.676;2022-11-12T02:23:35;11.40;99.90
11126;DHT22;5617;54.046;10.676;2022-11-12T02:25:44;11.40;99.90
11126;DHT22;5617;54.046;10.676;2022-11-12T02:27:57;11.40;99.90
11126;DHT22;5617;54.046;10.676;2022-11-12T02:30:06;11.40;99.90
11126;DHT22;5617;54.046;10.676;2022-11-12T02:32:14;11.40;99.90
11126;DHT22;5617;54.046;10.676;2022-11-12T02:34:22;11.40;99.90
11126;DHT22;5617;54.046;10.676;2022-11-12T02:36:31;11.30;99.90
11126;DHT22;5617;54.046;10.676;2022-11-12T02:38:38;11.30;99.90
11126;DHT22;5617;54.046;10.676;2022-11-12T02:40:46;11.40;99.90
11126;DHT22;5617;54.046;10.676;2022-11-12T02:42:54;11.30;99.90
11126;DHT22;5617;54.046;10.676;2022-11-12T02:45:01;11.30;99.90
11126;DHT22;5617;54.046;10.676;2022-11-12T02:47:09;11.30;99.90
11126;DHT22;5617;54.046;10.676;2022-11-12T02:49:17;11.30;99.90
11126;DHT22;5617;54.046;10.676;2022-11-12T02:51:25;11.30;99.90
11126;DHT22;5617;54.046;10.676;2022-11-12T02:53:34;11.30;99.90
11126;DHT22;5617;54.046;10.676;2022-11-12T02:55:42;11.30;99.90
11126;DHT22;5617;54.046;10.676;2022-11-12T02:57:49;11.30;99.90
11126;DHT22;5617;54.046;10.676;2022-11-12T02:59:57;11.30;99.90
11126;DHT22;5617;54.046;10.676;2022-11-12T03:02:05;11.30;99.90
11126;DHT22;5617;54.046;10.676;2022-11-12T03:04:12;11.40;99.90
11126;DHT22;5617;54.046;10.676;2022-11-12T03:06:20;11.30;99.90
11126;DHT22;5617;54.046;10.676;2022-11-12T03:08:47;11.40;99.90
11126;DHT22;5617;54.046;10.676;2022-11-12T03:11:14;11.40;99.90
11126;DHT22;5617;54.046;10.676;2022-11-12T03:13:40;11.40;99.90
11126;DHT22;5617;54.046;10.676;2022-11-12T03:16:06;11.40;99.90
11126;DHT22;5617;54.046;10.676;2022-11-12T03:18:31;11.50;99.90
11126;DHT22;5617;54.046;10.676;2022-11-12T03:20:57;11.40;99.90
11126;DHT22;5617;54.046;10.676;2022-11-12T03:23:24;11.40;99.90
11126;DHT22;5617;54.046;10.676;2022-11-12T03:25:51;11.40;99.90
11126;DHT22;5617;54.046;10.676;2022-11-12T03:28:01;11.50;99.90
11126;DHT22;5617;54.046;10.676;2022-11-12T03:30:11;11.50;99.90
11126;DHT22;5617;54.046;10.676;2022-11-12T03:32:19;11.50;99.90
11126;DHT22;5617;54.046;10.676;2022-11-12T03:34:27;11.50;99.90
11126;DHT22;5617;54.046;10.676;2022-11-12T03:36:34;11.50;99.90
11126;DHT22;5617;54.046;10.676;2022-11-12T03:38:42;11.50;99.90
11126;DHT22;5617;54.046;10.676;2022-11-12T03:40:51;11.50;99.90
11126;DHT22;5617;54.046;10.676;2022-11-12T03:42:58;11.50;99.90
11126;DHT22;5617;54.046;10.676;2022-11-12T03:45:06;11.50;99.90
11126;DHT22;5617;54.046;10.676;2022-11-12T03:47:14;11.50;99.90
11126;DHT22;5617;54.046;10.676;2022-11-12T03:49:23;11.50;99.90
11126;DHT22;5617;54.046;10.676;2022-11-12T03:51:32;11.50;99.90
11126;DHT22;5617;54.046;10.676;2022-11-12T03:53:39;11.50;99.90
11126;DHT22;5617;54.046;10.676;2022-11-12T03:55:47;11.50;99.90
11126;DHT22;5617;54.046;10.676;2022-11-12T03:57:58;11.50;99.90
11126;DHT22;5617;54.046;10.676;2022-11-12T04:00:08;11.50;99.90
11126;DHT22;5617;54.046;10.676;2022-11-12T04:02:16;11.40;99.90
11126;DHT22;5617;54.046;10.676;2022-11-12T04:04:25;11.40;99.90
11126;DHT22;5617;54.046;10.676;2022-11-12T04:06:54;11.40;99.90
11126;DHT22;5617;54.046;10.676;2022-11-12T04:09:22;11.50;99.90
11126;DHT22;5617;54.046;10.676;2022-11-12T04:11:29;11.40;99.90
11126;DHT22;5617;54.046;10.676;2022-11-12T04:13:41;11.40;99.90
11126;DHT22;5617;54.046;10.676;2022-11-12T04:15:49;11.40;99.90
11126;DHT22;5617;54.046;10.676;2022-11-12T04:18:17;11.40;99.90
11126;DHT22;5617;54.046;10.676;2022-11-12T04:20:43;11.50;99.90
11126;DHT22;5617;54.046;10.676;2022-11-12T04:23:10;11.40;99.90
11126;DHT22;5617;54.046;10.676;2022-11-12T04:25:18;11.40;99.90
11126;DHT22;5617;54.046;10.676;2022-11-12T04:27:43;11.40;99.90
11126;DHT22;5617;54.046;10.676;2022-11-12T04:29:53;11.40;99.90
11126;DHT22;5617;54.046;10.676;2022-11-12T04:32:20;11.40;99.90
11126;DHT22;5617;54.046;10.676;2022-11-12T04:34:28;11.40;99.90
11126;DHT22;5617;54.046;10.676;2022-11-12T04:36:35;11.40;99.90
11126;DHT22;5617;54.046;10.676;2022-11-12T04:38:43;11.40;99.90
11126;DHT22;5617;54.046;10.676;2022-11-12T04:40:50;11.40;99.90
11126;DHT22;5617;54.046;10.676;2022-11-12T04:43:16;11.40;99.90
11126;DHT22;5617;54.046;10.676;2022-11-12T04:45:45;11.40;99.90
11126;DHT22;5617;54.046;10.676;2022-11-12T04:47:57;11.40;99.90
11126;DHT22;5617;54.046;10.676;2022-11-12T04:50:14;11.40;99.90
11126;DHT22;5617;54.046;10.676;2022-11-12T04:52:24;11.30;99.90
11126;DHT22;5617;54.046;10.676;2022-11-12T04:54:33;11.30;99.90
11126;DHT22;5617;54.046;10.676;2022-11-12T04:56:41;11.30;99.90
11126;DHT22;5617;54.046;10.676;2022-11-12T04:58:49;11.30;99.90
11126;DHT22;5617;54.046;10.676;2022-11-12T05:01:00;11.40;99.90
11126;DHT22;5617;54.046;10.676;2022-11-12T05:03:09;11.40;99.90
11126;DHT22;5617;54.046;10.676;2022-11-12T05:05:18;11.40;99.90
11126;DHT22;5617;54.046;10.676;2022-11-12T05:07:26;11.40;99.90
11126;DHT22;5617;54.046;10.676;2022-11-12T05:09:34;11.40;99.90
11126;DHT22;5617;54.046;10.676;2022-11-12T05:11:43;11.40;99.90
11126;DHT22;5617;54.046;10.676;2022-11-12T05:13:51;11.40;99.90
11126;DHT22;5617;54.046;10.676;2022-11-12T05:16:01;11.40;99.90
11126;DHT22;5617;54.046;10.676;2022-11-12T05:18:10;11.40;99.90
11126;DHT22;5617;54.046;10.676;2022-11-12T05:20:18;11.40;99.90
11126;DHT22;5617;54.046;10.676;2022-11-12T05:22:26;11.40;99.90
11126;DHT22;5617;54.046;10.676;2022-11-12T05:24:35;11.40;99.90
11126;DHT22;5617;54.046;10.676;2022-11-12T05:26:43;11.40;99.90
11126;DHT22;5617;54.046;10.676;2022-11-12T05:28:50;11.40;99.90
11126;DHT22;5617;54.046;10.676;2022-11-12T05:30:58;11.30;99.90
11126;DHT22;5617;54.046;10.676;2022-11-12T05:33:08;11.30;99.90
11126;DHT22;5617;54.046;10.676;2022-11-12T05:35:16;11.30;99.90
11126;DHT22;5617;54.046;10.676;2022-11-12T05:37:23;11.40;99.90
11126;DHT22;5617;54.046;10.676;2022-11-12T05:39:31;11.40;99.90
11126;DHT22;5617;54.046;10.676;2022-11-12T05:41:38;11.30;99.90
11126;DHT22;5617;54.046;10.676;2022-11-12T05:43:46;11.30;99.90
11126;DHT22;5617;54.046;10.676;2022-11-12T05:45:55;11.30;99.90
11126;DHT22;5617;54.046;10.676;2022-11-12T05:48:02;11.30;99.90
11126;DHT22;5617;54.046;10.676;2022-11-12T05:50:11;11.30;99.90
11126;DHT22;5617;54.046;10.676;2022-11-12T05:52:19;11.30;99.90
11126;DHT22;5617;54.046;10.676;2022-11-12T05:54:28;11.40;99.90
11126;DHT22;5617;54.046;10.676;2022-11-12T05:56:36;11.30;99.90
11126;DHT22;5617;54.046;10.676;2022-11-12T05:58:44;11.20;99.90
11126;DHT22;5617;54.046;10.676;2022-11-12T06:00:52;11.20;99.90
11126;DHT22;5617;54.046;10.676;2022-11-12T06:03:01;11.20;99.90
11126;DHT22;5617;54.046;10.676;2022-11-12T06:05:08;11.20;99.90
11126;DHT22;5617;54.046;10.676;2022-11-12T06:07:18;11.20;99.90
11126;DHT22;5617;54.046;10.676;2022-11-12T06:09:27;11.20;99.90
11126;DHT22;5617;54.046;10.676;2022-11-12T06:11:35;11.10;99.90
11126;DHT22;5617;54.046;10.676;2022-11-12T06:13:43;11.10;99.90
11126;DHT22;5617;54.046;10.676;2022-11-12T06:15:51;11.10;99.90
11126;DHT22;5617;54.046;10.676;2022-11-12T06:17:59;11.10;99.90
11126;DHT22;5617;54.046;10.676;2022-11-12T06:20:09;11.10;99.90
11126;DHT22;5617;54.046;10.676;2022-11-12T06:22:18;11.10;99.90
11126;DHT22;5617;54.046;10.676;2022-11-12T06:24:26;11.10;99.90
11126;DHT22;5617;54.046;10.676;2022-11-12T06:26:34;11.10;99.90
11126;DHT22;5617;54.046;10.676;2022-11-12T06:28:46;11.10;99.90
11126;DHT22;5617;54.046;10.676;2022-11-12T06:30:54;11.00;99.90
11126;DHT22;5617;54.046;10.676;2022-11-12T06:33:02;11.00;99.90
11126;DHT22;5617;54.046;10.676;2022-11-12T06:35:09;11.00;99.90
11126;DHT22;5617;54.046;10.676;2022-11-12T06:37:19;11.00;99.90
11126;DHT22;5617;54.046;10.676;2022-11-12T06:39:27;11.10;99.90
11126;DHT22;5617;54.046;10.676;2022-11-12T06:41:34;11.10;99.90
11126;DHT22;5617;54.046;10.676;2022-11-12T06:43:42;11.10;99.90
11126;DHT22;5617;54.046;10.676;2022-11-12T06:45:50;11.10;99.90
11126;DHT22;5617;54.046;10.676;2022-11-12T06:47:58;11.10;99.90
11126;DHT22;5617;54.046;10.676;2022-11-12T06:50:06;11.10;99.90
11126;DHT22;5617;54.046;10.676;2022-11-12T06:52:15;11.10;99.90
11126;DHT22;5617;54.046;10.676;2022-11-12T06:54:24;11.10;99.90
11126;DHT22;5617;54.046;10.676;2022-11-12T06:56:32;11.10;99.90
11126;DHT22;5617;54.046;10.676;2022-11-12T06:58:42;11.10;99.90
11126;DHT22;5617;54.046;10.676;2022-11-12T07:00:49;11.10;99.90
11126;DHT22;5617;54.046;10.676;2022-11-12T07:02:57;11.10;99.90
11126;DHT22;5617;54.046;10.676;2022-11-12T07:05:06;11.10;99.90
11126;DHT22;5617;54.046;10.676;2022-11-12T07:07:14;11.10;99.90
11126;DHT22;5617;54.046;10.676;2022-11-12T07:09:24;11.20;99.90
11126;DHT22;5617;54.046;10.676;2022-11-12T07:11:31;11.20;99.90
11126;DHT22;5617;54.046;10.676;2022-11-12T07:13:39;11.20;99.90
11126;DHT22;5617;54.046;10.676;2022-11-12T07:15:47;11.20;99.90
11126;DHT22;5617;54.046;10.676;2022-11-12T07:17:55;11.20;99.90
11126;DHT22;5617;54.046;10.676;2022-11-12T07:20:03;11.20;99.90
11126;DHT22;5617;54.046;10.676;2022-11-12T07:22:11;11.20;99.90
11126;DHT22;5617;54.046;10.676;2022-11-12T07:24:19;11.20;99.90
11126;DHT22;5617;54.046;10.676;2022-11-12T07:26:29;11.30;99.90
11126;DHT22;5617;54.046;10.676;2022-11-12T07:28:37;11.20;99.90
11126;DHT22;5617;54.046;10.676;2022-11-12T07:30:44;11.30;99.90
11126;DHT22;5617;54.046;10.676;2022-11-12T07:32:56;11.30;99.90
11126;DHT22;5617;54.046;10.676;2022-11-12T07:35:05;11.30;99.90
11126;DHT22;5617;54.046;10.676;2022-11-12T07:37:14;11.40;99.90
11126;DHT22;5617;54.046;10.676;2022-11-12T07:39:23;11.30;99.90
11126;DHT22;5617;54.046;10.676;2022-11-12T07:41:32;11.40;99.90
11126;DHT22;5617;54.046;10.676;2022-11-12T07:43:42;11.40;99.90
11126;DHT22;5617;54.046;10.676;2022-11-12T07:45:49;11.40;99.90
11126;DHT22;5617;54.046;10.676;2022-11-12T07:47:57;11.40;99.90
11126;DHT22;5617;54.046;10.676;2022-11-12T07:50:06;11.50;99.90
11126;DHT22;5617;54.046;10.676;2022-11-12T07:52:14;11.50;99.90
11126;DHT22;5617;54.046;10.676;2022-11-12T07:54:21;11.50;99.90
11126;DHT22;5617;54.046;10.676;2022-11-12T07:56:29;11.50;99.90
11126;DHT22;5617;54.046;10.676;2022-11-12T07:58:38;11.50;99.90
11126;DHT22;5617;54.046;10.676;2022-11-12T08:00:46;11.50;99.90
11126;DHT22;5617;54.046;10.676;2022-11-12T08:02:54;11.60;99.90
11126;DHT22;5617;54.046;10.676;2022-11-12T08:05:01;11.60;99.90
11126;DHT22;5617;54.046;10.676;2022-11-12T08:07:10;11.60;99.90
11126;DHT22;5617;54.046;10.676;2022-11-12T08:09:18;11.70;99.90
11126;DHT22;5617;54.046;10.676;2022-11-12T08:11:26;11.60;99.90
11126;DHT22;5617;54.046;10.676;2022-11-12T08:13:34;11.60;99.90
11126;DHT22;5617;54.046;10.676;2022-11-12T08:15:43;11.50;99.90
11126;DHT22;5617;54.046;10.676;2022-11-12T08:17:53;11.50;99.90
11126;DHT22;5617;54.046;10.676;2022-11-12T08:20:02;11.50;99.90
11126;DHT22;5617;54.046;10.676;2022-11-12T08:22:12;11.50;99.90
11126;DHT22;5617;54.046;10.676;2022-11-12T08:24:21;11.50;99.90
11126;DHT22;5617;54.046;10.676;2022-11-12T08:26:31;11.60;99.90
11126;DHT22;5617;54.046;10.676;2022-11-12T08:28:39;11.70;99.90
11126;DHT22;5617;54.046;10.676;2022-11-12T08:30:49;11.70;99.90
11126;DHT22;5617;54.046;10.676;2022-11-12T08:32:58;11.80;99.90
11126;DHT22;5617;54.046;10.676;2022-11-12T08:35:06;11.80;99.90
11126;DHT22;5617;54.046;10.676;2022-11-12T08:37:14;11.90;99.90
11126;DHT22;5617;54.046;10.676;2022-11-12T08:39:22;11.90;99.90
11126;DHT22;5617;54.046;10.676;2022-11-12T08:41:30;12.00;99.90
11126;DHT22;5617;54.046;10.676;2022-11-12T08:43:39;12.00;99.90
11126;DHT22;5617;54.046;10.676;2022-11-12T08:45:49;12.10;99.90
11126;DHT22;5617;54.046;10.676;2022-11-12T08:47:58;12.10;99.90
11126;DHT22;5617;54.046;10.676;2022-11-12T08:50:08;12.10;99.90
11126;DHT22;5617;54.046;10.676;2022-11-12T08:52:16;12.10;99.90
11126;DHT22;5617;54.046;10.676;2022-11-12T08:54:24;12.10;99.90
11126;DHT22;5617;54.046;10.676;2022-11-12T08:56:32;12.10;99.90
11126;DHT22;5617;54.046;10.676;2022-11-12T08:58:40;12.20;99.90
11126;DHT22;5617;54.046;10.676;2022-11-12T09:00:52;12.10;99.90
11126;DHT22;5617;54.046;10.676;2022-11-12T09:03:02;12.00;99.90
11126;DHT22;5617;54.046;10.676;2022-11-12T09:05:10;12.00;99.90
11126;DHT22;5617;54.046;10.676;2022-11-12T09:07:18;12.10;99.90
11126;DHT22;5617;54.046;10.676;2022-11-12T09:09:26;12.10;99.90
11126;DHT22;5617;54.046;10.676;2022-11-12T09:11:34;12.20;99.90
11126;DHT22;5617;54.046;10.676;2022-11-12T09:13:42;12.20;99.90
11126;DHT22;5617;54.046;10.676;2022-11-12T09:15:51;12.20;99.90
11126;DHT22;5617;54.046;10.676;2022-11-12T09:18:03;12.30;99.90
11126;DHT22;5617;54.046;10.676;2022-11-12T09:20:12;12.30;99.90
11126;DHT22;5617;54.046;10.676;2022-11-12T09:22:23;12.30;99.90
11126;DHT22;5617;54.046;10.676;2022-11-12T09:24:31;12.30;99.90
11126;DHT22;5617;54.046;10.676;2022-11-12T09:26:39;12.40;99.90
11126;DHT22;5617;54.046;10.676;2022-11-12T09:28:46;12.40;99.90
11126;DHT22;5617;54.046;10.676;2022-11-12T09:30:55;12.30;99.90
11126;DHT22;5617;54.046;10.676;2022-11-12T09:33:04;12.30;99.90
11126;DHT22;5617;54.046;10.676;2022-11-12T09:35:12;12.30;99.90
11126;DHT22;5617;54.046;10.676;2022-11-12T09:37:20;12.30;99.90
11126;DHT22;5617;54.046;10.676;2022-11-12T09:39:28;12.40;99.90
11126;DHT22;5617;54.046;10.676;2022-11-12T09:41:37;12.40;99.90
11126;DHT22;5617;54.046;10.676;2022-11-12T09:43:48;12.40;99.90
11126;DHT22;5617;54.046;10.676;2022-11-12T09:46:01;12.50;99.90
11126;DHT22;5617;54.046;10.676;2022-11-12T09:48:15;12.60;99.90
11126;DHT22;5617;54.046;10.676;2022-11-12T09:50:26;12.70;99.90
11126;DHT22;5617;54.046;10.676;2022-11-12T09:52:36;12.90;99.90
11126;DHT22;5617;54.046;10.676;2022-11-12T09:54:50;13.20;99.90
11126;DHT22;5617;54.046;10.676;2022-11-12T09:56:58;13.40;99.90
11126;DHT22;5617;54.046;10.676;2022-11-12T09:59:10;13.50;99.90
11126;DHT22;5617;54.046;10.676;2022-11-12T10:01:23;13.60;99.90
11126;DHT22;5617;54.046;10.676;2022-11-12T10:03:37;13.60;99.90
11126;DHT22;5617;54.046;10.676;2022-11-12T10:05:48;13.60;99.90
11126;DHT22;5617;54.046;10.676;2022-11-12T10:08:05;13.50;99.90
11126;DHT22;5617;54.046;10.676;2022-11-12T10:10:27;13.70;99.90
11126;DHT22;5617;54.046;10.676;2022-11-12T10:12:48;13.60;99.90
11126;DHT22;5617;54.046;10.676;2022-11-12T10:15:12;13.70;99.90
11126;DHT22;5617;54.046;10.676;2022-11-12T10:17:50;13.90;99.90
11126;DHT22;5617;54.046;10.676;2022-11-12T10:20:08;14.10;99.90
11126;DHT22;5617;54.046;10.676;2022-11-12T10:22:28;14.30;99.90
11126;DHT22;5617;54.046;10.676;2022-11-12T10:24:41;14.50;99.90
11126;DHT22;5617;54.046;10.676;2022-11-12T10:26:49;14.60;99.90
11126;DHT22;5617;54.046;10.676;2022-11-12T10:29:02;14.70;99.90
11126;DHT22;5617;54.046;10.676;2022-11-12T10:31:16;14.80;99.90
11126;DHT22;5617;54.046;10.676;2022-11-12T10:33:29;14.90;99.90
11126;DHT22;5617;54.046;10.676;2022-11-12T10:35:37;15.00;99.90
11126;DHT22;5617;54.046;10.676;2022-11-12T10:37:48;15.10;99.90
11126;DHT22;5617;54.046;10.676;2022-11-12T10:39:56;15.20;99.90
11126;DHT22;5617;54.046;10.676;2022-11-12T10:42:06;15.30;99.90
11126;DHT22;5617;54.046;10.676;2022-11-12T10:44:24;15.30;99.90
11126;DHT22;5617;54.046;10.676;2022-11-12T10:46:34;15.40;99.90
11126;DHT22;5617;54.046;10.676;2022-11-12T10:48:52;15.50;99.90
11126;DHT22;5617;54.046;10.676;2022-11-12T10:51:01;15.60;99.90
11126;DHT22;5617;54.046;10.676;2022-11-12T10:53:10;15.70;99.90
11126;DHT22;5617;54.046;10.676;2022-11-12T10:55:20;15.80;99.90
11126;DHT22;5617;54.046;10.676;2022-11-12T10:57:28;16.00;99.90
11126;DHT22;5617;54.046;10.676;2022-11-12T10:59:36;16.10;99.90
11126;DHT22;5617;54.046;10.676;2022-11-12T11:01:45;16.10;99.90
11126;DHT22;5617;54.046;10.676;2022-11-12T11:03:56;16.10;99.90
11126;DHT22;5617;54.046;10.676;2022-11-12T11:06:06;16.20;99.90
11126;DHT22;5617;54.046;10.676;2022-11-12T11:08:14;16.40;99.90
11126;DHT22;5617;54.046;10.676;2022-11-12T11:10:37;16.40;99.90
11126;DHT22;5617;54.046;10.676;2022-11-12T11:12:45;16.50;99.90
11126;DHT22;5617;54.046;10.676;2022-11-12T11:15:05;16.50;99.90
11126;DHT22;5617;54.046;10.676;2022-11-12T11:17:16;16.50;99.90
11126;DHT22;5617;54.046;10.676;2022-11-12T11:19:33;16.70;99.90
11126;DHT22;5617;54.046;10.676;2022-11-12T11:21:55;16.90;99.90
11126;DHT22;5617;54.046;10.676;2022-11-12T11:24:21;17.10;99.90
11126;DHT22;5617;54.046;10.676;2022-11-12T11:26:38;17.20;99.90
11126;DHT22;5617;54.046;10.676;2022-11-12T11:28:52;17.10;99.90
11126;DHT22;5617;54.046;10.676;2022-11-12T11:31:12;17.10;99.90
11126;DHT22;5617;54.046;10.676;2022-11-12T11:33:41;17.10;99.90
11126;DHT22;5617;54.046;10.676;2022-11-12T11:36:02;17.20;99.90
11126;DHT22;5617;54.046;10.676;2022-11-12T11:38:22;17.20;99.90
11126;DHT22;5617;54.046;10.676;2022-11-12T11:40:36;17.20;99.90
11126;DHT22;5617;54.046;10.676;2022-11-12T11:43:04;17.10;99.90
11126;DHT22;5617;54.046;10.676;2022-11-12T11:45:17;17.10;99.90
11126;DHT22;5617;54.046;10.676;2022-11-12T11:47:34;17.20;99.90
11126;DHT22;5617;54.046;10.676;2022-11-12T11:49:55;17.30;99.90
11126;DHT22;5617;54.046;10.676;2022-11-12T11:52:25;17.30;99.90
11126;DHT22;5617;54.046;10.676;2022-11-12T11:54:47;17.50;99.90
11126;DHT22;5617;54.046;10.676;2022-11-12T11:57:00;17.60;99.90
11126;DHT22;5617;54.046;10.676;2022-11-12T11:59:23;17.80;99.90
11126;DHT22;5617;54.046;10.676;2022-11-12T12:01:50;17.80;99.90
11126;DHT22;5617;54.046;10.676;2022-11-12T12:04:23;17.90;99.90
11126;DHT22;5617;54.046;10.676;2022-11-12T12:06:39;17.80;99.90
11126;DHT22;5617;54.046;10.676;2022-11-12T12:09:06;17.70;99.90
11126;DHT22;5617;54.046;10.676;2022-11-12T12:11:23;17.70;99.90
11126;DHT22;5617;54.046;10.676;2022-11-12T12:13:41;17.60;99.90
11126;DHT22;5617;54.046;10.676;2022-11-12T12:16:07;17.70;99.90
11126;DHT22;5617;54.046;10.676;2022-11-12T12:18:32;17.90;99.90
11126;DHT22;5617;54.046;10.676;2022-11-12T12:20:45;17.90;99.90
11126;DHT22;5617;54.046;10.676;2022-11-12T12:22:59;17.80;99.90
11126;DHT22;5617;54.046;10.676;2022-11-12T12:25:13;17.70;99.90
11126;DHT22;5617;54.046;10.676;2022-11-12T12:27:24;17.60;99.90
11126;DHT22;5617;54.046;10.676;2022-11-12T12:29:38;17.60;99.90
11126;DHT22;5617;54.046;10.676;2022-11-12T12:31:50;17.60;99.90
11126;DHT22;5617;54.046;10.676;2022-11-12T12:34:01;17.40;99.90
11126;DHT22;5617;54.046;10.676;2022-11-12T12:36:12;17.40;99.90
11126;DHT22;5617;54.046;10.676;2022-11-12T12:38:26;17.40;99.90
11126;DHT22;5617;54.046;10.676;2022-11-12T12:40:42;17.40;99.90
11126;DHT22;5617;54.046;10.676;2022-11-12T12:42:55;17.40;99.90
11126;DHT22;5617;54.046;10.676;2022-11-12T12:45:33;17.40;99.90
11126;DHT22;5617;54.046;10.676;2022-11-12T12:47:42;17.60;99.90
11126;DHT22;5617;54.046;10.676;2022-11-12T12:49:51;17.40;99.90
11126;DHT22;5617;54.046;10.676;2022-11-12T12:51:59;17.50;99.90
11126;DHT22;5617;54.046;10.676;2022-11-12T12:56:49;17.50;99.90
11126;DHT22;5617;54.046;10.676;2022-11-12T12:58:57;17.50;99.90
11126;DHT22;5617;54.046;10.676;2022-11-12T13:01:12;17.50;99.90
11126;DHT22;5617;54.046;10.676;2022-11-12T13:04:00;17.50;99.90
11126;DHT22;5617;54.046;10.676;2022-11-12T13:06:14;17.40;99.90
11126;DHT22;5617;54.046;10.676;2022-11-12T13:08:25;17.40;99.90
11126;DHT22;5617;54.046;10.676;2022-11-12T13:10:50;17.30;99.90
11126;DHT22;5617;54.046;10.676;2022-11-12T13:13:05;17.20;99.90
11126;DHT22;5617;54.046;10.676;2022-11-12T13:15:41;17.30;99.90
11126;DHT22;5617;54.046;10.676;2022-11-12T13:17:50;17.40;99.90
11126;DHT22;5617;54.046;10.676;2022-11-12T13:20:35;17.30;99.90
11126;DHT22;5617;54.046;10.676;2022-11-12T13:22:49;17.20;99.90
11126;DHT22;5617;54.046;10.676;2022-11-12T13:25:02;17.10;99.90
11126;DHT22;5617;54.046;10.676;2022-11-12T13:27:12;16.90;99.90
11126;DHT22;5617;54.046;10.676;2022-11-12T13:31:47;16.60;99.90
11126;DHT22;5617;54.046;10.676;2022-11-12T13:33:55;16.40;99.90
11126;DHT22;5617;54.046;10.676;2022-11-12T13:36:26;16.20;99.90
11126;DHT22;5617;54.046;10.676;2022-11-12T13:38:36;16.20;99.90
11126;DHT22;5617;54.046;10.676;2022-11-12T13:40:45;16.10;99.90
11126;DHT22;5617;54.046;10.676;2022-11-12T13:42:56;16.10;99.90
11126;DHT22;5617;54.046;10.676;2022-11-12T13:45:09;16.10;99.90
11126;DHT22;5617;54.046;10.676;2022-11-12T13:47:21;16.00;99.90
11126;DHT22;5617;54.046;10.676;2022-11-12T13:49:30;15.90;99.90
11126;DHT22;5617;54.046;10.676;2022-11-12T13:51:39;16.00;99.90
11126;DHT22;5617;54.046;10.676;2022-11-12T13:53:48;16.00;99.90
11126;DHT22;5617;54.046;10.676;2022-11-12T13:55:56;16.00;99.90